Terminal Aerodrome Forecast
Issued by NWS Detroit/Pontiac, MI

Home | Current Version | Previous Version | Text Only | Print | Product List | Glossary On
Versions: 1 2 3 4 5 6 7 8 9 10 11 12 13 14 15 16 17 18 19 20 21 22 23 24 25 26 27 28
000
FTUS43 KDTX 210000 AAA
TAFDTW
TAF AMD
KDTW 210045Z 2101/2206 22014KT 6SM -SHRA BKN045 OVC080
     FM210300 22006KT P6SM BKN035 OVC060
     FM210800 22005KT 4SM BR BKN010 OVC030
     FM211400 28009KT P6SM BKN020 OVC035
     FM211700 32012KT P6SM BKN035 BKN060 PROB30 2117/2121 3SM TSRA
      OVC025CB
     FM220000 35012KT P6SM BKN050=

USA.gov is the U.S. government's official web portal to all federal, state and local government web resources and services.